Boynton Beach, FL (33437)

12:10 PM EDT on May 26, 2015 (GMT -0400)
Valencia Pointe | | Change Station
CLOSE
Current Station
Personal Weather Station
Location: Boynton Beach, FL
Elevation: 33 ft
Nearby Weather Stations

Elev 33 ft 26.51 °N, 80.16 °W | Updated 2 seconds ago

Partly Cloudy
Partly Cloudy
84.6 °F
Feels Like 90 °F
N
8.0
Wind Variable Wind from ENE

Today
High -- | Low -- °F
--% Chance of Precip.
Yesterday
High -- | Low -- °F
Precip. -- in
6:29 AM 8:06 PM
First Quarter, 59% visible
Pressure 30.22 in
Visibility 10.0 miles
Clouds Scattered Clouds 2900 ft
Scattered Clouds 25000 ft
Heat Index 90 °F
Dew Point 72 °F
Humidity 66%
Rainfall 0.00 in
Snow Depth Not available.
UV 11 out of 12
Pollen 5.30 out of 12
Air Quality Not available.
Flu Activity Sporadic
METAR KPBI 261553Z 11014KT 10SM SCT029 SCT250 31/21 A3022 RMK AO2 SLP231 T03060211

More Conditions Fewer Conditions

Pressure 30.22 in
Visibility 10.0 miles
Clouds Scattered Clouds 2900 ft
Scattered Clouds 25000 ft
Heat Index 90 °F
Dew Point 72 °F
Humidity 66%
Rainfall 0.00 in
Snow Depth Not available.
UV 11 out of 12
Pollen 5.30 out of 12
Air Quality Not available.
Flu Activity Sporadic
METAR KPBI 261553Z 11014KT 10SM SCT029 SCT250 31/21 A3022 RMK AO2 SLP231 T03060211

More Conditions Fewer Conditions

10-Day Weather Forecast

Almanac

Astronomy

May. 26, 2015 Rise Set
Actual Time
Civil Twilight
Nautical Twilight
Astronomical Twilight
Moon
Length of Visible Light
Length of Day
Tomorrow will be .
, % of the Moon is Illuminated

Today's Extremes

State Highs State Lows

Community

WunderPhotos

Upload Photos

1,824,379 photos uploaded!

WunderBlogs® & News

Nearby

Air Quality

  Air Quality AQ Index Pollutant
Not available.

Snow Depth

Station Depth Elevation

Earthquake Activity

City Distance Mag. Time & Date
Minimum magnitude displayed is 2.5.

Coastal Water Temperatures

Place Temperature

Stations

Nearby Weather Stations

Station Location Temp. Windchill Dew Point Humidity Wind Precip. Elev Updated Type